Schneifelwetter: Wetterstation Hallschlag, 537 m . NN
Wetterdaten: Dienstag, 18.09.2012
Datum Zeit Temp. A. Feuchte A. Luftdruck Regen Wind Richtung Richtung Sonnenschein T Regen Taupunkt Windchill
18.09.2012 00:08 7,8 C 91 % 1013 hPa 0,0 l/m 0,0 km/h (0 Bft) W-SW 250 0 min 0 min 6,4 C 7,8 C
18.09.2012 00:23 7,6 C 91 % 1013 hPa 0,0 l/m 0,0 km/h (0 Bft) W-SW 250 0 min 0 min 6,2 C 7,6 C
18.09.2012 00:38 7,4 C 92 % 1013 hPa 0,0 l/m 0,0 km/h (0 Bft) W-SW 250 0 min 0 min 6,2 C 7,4 C
18.09.2012 00:53 7,2 C 92 % 1012 hPa 0,0 l/m 0,0 km/h (0 Bft) W-SW 250 0 min 0 min 6,0 C 7,2 C
18.09.2012 01:08 7,2 C 92 % 1012 hPa 0,0 l/m 0,0 km/h (0 Bft) W-SW 250 0 min 0 min 6,0 C 7,2 C
18.09.2012 01:23 7,2 C 93 % 1012 hPa 0,0 l/m 0,0 km/h (0 Bft) W-SW 250 0 min 0 min 6,1 C 7,2 C
18.09.2012 01:38 7,2 C 92 % 1012 hPa 0,0 l/m 0,0 km/h (0 Bft) W-SW 250 0 min 0 min 6,0 C 7,2 C
18.09.2012 01:53 6,7 C 93 % 1012 hPa 0,0 l/m 0,0 km/h (0 Bft) W-SW 250 0 min 0 min 5,6 C 6,7 C
18.09.2012 02:08 6,8 C 93 % 1012 hPa 0,0 l/m 0,0 km/h (0 Bft) W-SW 250 0 min 0 min 5,7 C 6,8 C
18.09.2012 02:23 6,5 C 93 % 1012 hPa 0,0 l/m 0,0 km/h (0 Bft) W-SW 250 0 min 0 min 5,5 C 6,5 C
18.09.2012 02:38 6,2 C 93 % 1012 hPa 0,0 l/m 0,0 km/h (0 Bft) W-SW 250 0 min 0 min 5,2 C 6,2 C
18.09.2012 02:53 5,9 C 93 % 1012 hPa 0,0 l/m 0,0 km/h (0 Bft) W-SW 250 0 min 0 min 4,9 C 5,9 C
18.09.2012 03:08 5,6 C 93 % 1012 hPa 0,0 l/m 0,0 km/h (0 Bft) W-SW 250 0 min 0 min 4,6 C 5,6 C
18.09.2012 03:23 5,2 C 94 % 1012 hPa 0,0 l/m 0,0 km/h (0 Bft) W-SW 250 0 min 0 min 4,3 C 5,2 C
18.09.2012 03:38 5,2 C 94 % 1012 hPa 0,0 l/m 0,0 km/h (0 Bft) W-SW 250 0 min 0 min 4,3 C 5,2 C
18.09.2012 03:53 4,9 C 93 % 1011 hPa 0,0 l/m 0,0 km/h (0 Bft) W-SW 250 0 min 0 min 3,9 C 4,9 C
18.09.2012 04:08 5,2 C 94 % 1011 hPa 0,0 l/m 0,0 km/h (0 Bft) W-SW 250 0 min 0 min 4,3 C 5,2 C
18.09.2012 04:23 5,5 C 95 % 1011 hPa 0,0 l/m 0,0 km/h (0 Bft) W-SW 250 0 min 0 min 4,8 C 5,5 C
18.09.2012 04:38 6,4 C 95 % 1011 hPa 0,0 l/m 0,0 km/h (0 Bft) W-SW 250 0 min 0 min 5,7 C 6,4 C
18.09.2012 04:53 7,2 C 96 % 1011 hPa 0,0 l/m 0,0 km/h (0 Bft) W-SW 250 0 min 0 min 6,6 C 7,2 C
18.09.2012 05:08 7,8 C 96 % 1011 hPa 0,0 l/m 0,0 km/h (0 Bft) W-SW 250 0 min 0 min 7,2 C 7,8 C
18.09.2012 05:23 8,6 C 96 % 1011 hPa 0,0 l/m 0,0 km/h (0 Bft) W-SW 250 0 min 0 min 8,0 C 8,6 C
18.09.2012 05:38 9,2 C 96 % 1011 hPa 0,0 l/m 4,8 km/h (1 Bft) W-SW 250 0 min 0 min 8,6 C 9,2 C
18.09.2012 05:53 9,6 C 96 % 1011 hPa 0,0 l/m 10,1 km/h (2 Bft) W-SW22.5 250 0 min 0 min 9,0 C 7,1 C
18.09.2012 06:08 9,8 C 96 % 1011 hPa 0,3 l/m 10,0 km/h (2 Bft) W-SW22.5 245 0 min 15 min 9,2 C 7,4 C
18.09.2012 06:23 9,8 C 96 % 1011 hPa 0,0 l/m 13,7 km/h (3 Bft) W22.5 260 0 min 0 min 9,2 C 5,5 C
18.09.2012 06:38 9,6 C 96 % 1011 hPa 0,0 l/m 14,1 km/h (3 Bft) W-SW 250 0 min 0 min 9,0 C 5,0 C
18.09.2012 06:53 9,5 C 96 % 1011 hPa 0,0 l/m 15,2 km/h (3 Bft) W-SW 250 0 min 0 min 8,9 C 4,4 C
18.09.2012 07:08 9,3 C 96 % 1011 hPa 0,0 l/m 8,5 km/h (2 Bft) W-SW 245 0 min 0 min 8,7 C 7,8 C
18.09.2012 07:23 9,2 C 96 % 1011 hPa 0,0 l/m 8,7 km/h (2 Bft) W-SW 245 0 min 0 min 8,6 C 7,5 C
18.09.2012 07:38 9,2 C 96 % 1011 hPa 0,0 l/m 0,0 km/h (0 Bft) W-SW 245 0 min 0 min 8,6 C 9,2 C
18.09.2012 07:59 9,4 C 96 % 1011 hPa 0,0 l/m 0,0 km/h (0 Bft) W-SW 245 0 min 0 min 8,8 C 9,4 C
18.09.2012 08:14 9,5 C 96 % 1011 hPa 0,0 l/m 0,0 km/h (0 Bft) W-SW 245 0 min 0 min 8,9 C 9,5 C
18.09.2012 08:29 9,7 C 96 % 1011 hPa 0,0 l/m 0,0 km/h (0 Bft) W-SW 245 0 min 0 min 9,1 C 9,7 C
18.09.2012 08:45 10,0 C 96 % 1011 hPa 0,0 l/m 11,0 km/h (2 Bft) W-SW 250 0 min 0 min 9,4 C 7,0 C
18.09.2012 08:59 10,4 C 97 % 1011 hPa 0,0 l/m 10,2 km/h (2 Bft) W-SW 250 0 min 0 min 9,9 C 7,9 C
18.09.2012 09:14 10,8 C 97 % 1011 hPa 0,0 l/m 9,0 km/h (2 Bft) W-SW 245 0 min 0 min 10,3 C 9,1 C
18.09.2012 09:29 11,1 C 96 % 1011 hPa 0,0 l/m 11,5 km/h (2 Bft) W-SW45 240 0 min 0 min 10,5 C 8,0 C
18.09.2012 09:44 11,8 C 96 % 1011 hPa 0,0 l/m 16,9 km/h (3 Bft) W-SW22.5 255 0 min 0 min 11,2 C 6,6 C
18.09.2012 09:59 12,7 C 96 % 1011 hPa 0,0 l/m 16,0 km/h (3 Bft) W-SW22.5 245 0 min 0 min 12,1 C 8,0 C
18.09.2012 10:15 13,9 C 93 % 1011 hPa 0,0 l/m 19,3 km/h (3 Bft) SW45 235 0 min 0 min 12,8 C 8,5 C
18.09.2012 10:29 14,8 C 89 % 1011 hPa 0,0 l/m 14,1 km/h (3 Bft) SW45 235 0 min 0 min 13,0 C 11,3 C
18.09.2012 10:44 15,8 C 85 % 1011 hPa 0,0 l/m 20,2 km/h (4 Bft) W45 265 0 min 0 min 13,3 C 10,7 C
18.09.2012 10:59 15,6 C 83 % 1011 hPa 0,0 l/m 19,5 km/h (3 Bft) W22.5 260 0 min 0 min 12,7 C 10,6 C
18.09.2012 11:14 15,8 C 82 % 1011 hPa 0,0 l/m 27,5 km/h (4 Bft) W-SW45 255 0 min 0 min 12,7 C 9,2 C
18.09.2012 11:29 15,7 C 81 % 1011 hPa 0,0 l/m 19,6 km/h (3 Bft) SW67.5 230 0 min 0 min 12,4 C 10,7 C
18.09.2012 11:45 15,9 C 81 % 1011 hPa 0,0 l/m 21,3 km/h (4 Bft) W-SW45 245 0 min 0 min 12,6 C 10,6 C
18.09.2012 11:59 16,3 C 80 % 1011 hPa 0,0 l/m 18,2 km/h (3 Bft) SW67.5 230 0 min 0 min 12,8 C 11,9 C
18.09.2012 12:14 16,7 C 79 % 1011 hPa 0,0 l/m 22,5 km/h (4 Bft) SW67.5 230 0 min 0 min 13,0 C 11,4 C
18.09.2012 12:29 16,6 C 79 % 1011 hPa 0,0 l/m 23,3 km/h (4 Bft) SW45 230 0 min 0 min 12,9 C 11,1 C
18.09.2012 12:44 16,4 C 79 % 1011 hPa 0,0 l/m 19,0 km/h (3 Bft) W-SW22.5 250 0 min 0 min 12,7 C 11,8 C
18.09.2012 12:59 15,8 C 79 % 1011 hPa 0,0 l/m 26,1 km/h (4 Bft) W-SW22.5 255 0 min 0 min 12,2 C 9,5 C
18.09.2012 13:15 15,6 C 80 % 1011 hPa 0,0 l/m 18,1 km/h (3 Bft) W-SW45 250 0 min 0 min 12,2 C 11,0 C
18.09.2012 13:29 15,5 C 79 % 1011 hPa 0,0 l/m 19,3 km/h (3 Bft) W-SW67.5 250 0 min 0 min 11,9 C 10,6 C
18.09.2012 13:44 14,2 C 80 % 1011 hPa 0,0 l/m 18,1 km/h (3 Bft) W45 280 0 min 0 min 10,8 C 9,2 C
18.09.2012 13:59 13,2 C 81 % 1011 hPa 0,0 l/m 22,1 km/h (4 Bft) W67.5 275 0 min 0 min 10,0 C 6,9 C
18.09.2012 14:14 12,5 C 83 % 1011 hPa 0,0 l/m 24,0 km/h (4 Bft) W-NW45 290 0 min 0 min 9,7 C 5,5 C
18.09.2012 14:29 12,6 C 82 % 1011 hPa 0,0 l/m 26,1 km/h (4 Bft) W45 270 0 min 0 min 9,6 C 5,1 C
18.09.2012 14:45 12,6 C 81 % 1011 hPa 0,0 l/m 23,6 km/h (4 Bft) W-SW22.5 255 0 min 0 min 9,4 C 5,7 C
18.09.2012 14:59 12,7 C 81 % 1011 hPa 0,0 l/m 23,1 km/h (4 Bft) W22.5 270 0 min 0 min 9,5 C 5,9 C
18.09.2012 15:14 12,8 C 81 % 1011 hPa 0,0 l/m 20,3 km/h (4 Bft) W45 275 0 min 0 min 9,6 C 6,8 C
18.09.2012 15:29 13,0 C 80 % 1011 hPa 0,0 l/m 18,7 km/h (3 Bft) W22.5 265 0 min 0 min 9,6 C 7,5 C
18.09.2012 15:44 12,9 C 80 % 1011 hPa 0,0 l/m 13,7 km/h (3 Bft) W45 265 0 min 0 min 9,5 C 9,1 C
18.09.2012 16:00 13,1 C 80 % 1011 hPa 0,0 l/m 17,3 km/h (3 Bft) W22.5 270 0 min 0 min 9,7 C 8,1 C
18.09.2012 16:14 13,5 C 79 % 1011 hPa 0,0 l/m 18,4 km/h (3 Bft) W22.5 260 0 min 0 min 9,9 C 8,3 C
18.09.2012 16:29 13,7 C 79 % 1011 hPa 0,0 l/m 16,8 km/h (3 Bft) W-SW45 240 0 min 0 min 10,1 C 9,0 C
18.09.2012 16:44 14,3 C 78 % 1011 hPa 0,0 l/m 13,8 km/h (3 Bft) W22.5 275 0 min 0 min 10,5 C 10,8 C
18.09.2012 16:59 14,0 C 77 % 1011 hPa 0,0 l/m 18,6 km/h (3 Bft) W22.5 260 0 min 0 min 10,0 C 8,8 C
18.09.2012 17:14 13,5 C 76 % 1011 hPa 0,0 l/m 11,8 km/h (2 Bft) W22.5 260 0 min 0 min 9,4 C 10,6 C
18.09.2012 17:30 12,6 C 77 % 1011 hPa 0,0 l/m 18,7 km/h (3 Bft) W45 275 0 min 0 min 8,7 C 7,0 C
18.09.2012 17:44 11,6 C 79 % 1012 hPa 0,0 l/m 25,6 km/h (4 Bft) W-NW45 285 0 min 0 min 8,1 C 3,9 C
18.09.2012 17:59 11,0 C 81 % 1012 hPa 0,0 l/m 9,7 km/h (2 Bft) W-NW45 285 0 min 0 min 7,9 C 8,9 C
18.09.2012 18:14 10,8 C 82 % 1012 hPa 0,0 l/m 0,0 km/h (0 Bft) W 275 0 min 0 min 7,9 C 10,8 C
18.09.2012 18:29 10,9 C 83 % 1012 hPa 0,0 l/m 0,0 km/h (0 Bft) W 275 0 min 0 min 8,1 C 10,9 C
18.09.2012 18:44 10,9 C 85 % 1012 hPa 0,0 l/m 0,1 km/h (0 Bft) W 275 0 min 0 min 8,5 C 10,9 C
18.09.2012 19:00 10,9 C 86 % 1012 hPa 0,0 l/m 0,1 km/h (0 Bft) W 275 0 min 0 min 8,7 C 10,9 C
18.09.2012 19:14 10,9 C 86 % 1012 hPa 0,0 l/m 0,0 km/h (0 Bft) W 275 0 min 0 min 8,7 C 10,9 C
18.09.2012 19:29 10,8 C 87 % 1012 hPa 0,0 l/m 9,0 km/h (2 Bft) W 275 0 min 0 min 8,7 C 9,1 C
18.09.2012 19:44 10,7 C 86 % 1012 hPa 0,0 l/m 8,5 km/h (2 Bft) W 260 0 min 0 min 8,5 C 9,3 C
18.09.2012 19:59 10,5 C 87 % 1012 hPa 0,0 l/m 0,0 km/h (0 Bft) W 260 0 min 0 min 8,4 C 10,5 C
18.09.2012 20:14 10,2 C 87 % 1012 hPa 0,0 l/m 1,3 km/h (1 Bft) W 260 0 min 0 min 8,1 C 10,2 C
18.09.2012 20:30 9,6 C 87 % 1012 hPa 0,0 l/m 0,3 km/h (0 Bft) W 260 0 min 0 min 7,5 C 9,6 C
18.09.2012 20:44 8,9 C 88 % 1012 hPa 0,0 l/m 0,0 km/h (0 Bft) W 260 0 min 0 min 7,0 C 8,9 C
18.09.2012 20:59 8,4 C 89 % 1012 hPa 0,0 l/m 0,0 km/h (0 Bft) W 260 0 min 0 min 6,7 C 8,4 C
18.09.2012 21:14 8,2 C 90 % 1013 hPa 0,0 l/m 0,3 km/h (0 Bft) W 260 0 min 0 min 6,7 C 8,2 C
18.09.2012 21:29 8,4 C 91 % 1013 hPa 0,0 l/m 0,0 km/h (0 Bft) W 260 0 min 0 min 7,0 C 8,4 C
18.09.2012 21:44 8,8 C 92 % 1013 hPa 0,0 l/m 2,5 km/h (1 Bft) W 260 0 min 0 min 7,6 C 8,8 C
18.09.2012 22:00 8,8 C 91 % 1013 hPa 0,0 l/m 0,3 km/h (0 Bft) W 260 0 min 0 min 7,4 C 8,8 C
18.09.2012 22:14 8,5 C 91 % 1013 hPa 0,0 l/m 0,4 km/h (0 Bft) W 260 0 min 0 min 7,1 C 8,5 C
18.09.2012 22:29 8,4 C 91 % 1013 hPa 0,0 l/m 0,0 km/h (0 Bft) W 260 0 min 0 min 7,0 C 8,4 C
18.09.2012 22:44 8,4 C 91 % 1013 hPa 0,0 l/m 0,0 km/h (0 Bft) W 260 0 min 0 min 7,0 C 8,4 C
18.09.2012 22:59 8,3 C 90 % 1013 hPa 0,0 l/m 0,0 km/h (0 Bft) W 260 0 min 0 min 6,8 C 8,3 C
18.09.2012 23:14 7,6 C 89 % 1013 hPa 0,0 l/m 0,0 km/h (0 Bft) W 260 0 min 0 min 5,9 C 7,6 C
18.09.2012 23:29 6,8 C 89 % 1013 hPa 0,0 l/m 0,0 km/h (0 Bft) W 260 0 min 0 min 5,1 C 6,8 C
18.09.2012 23:44 6,1 C 90 % 1013 hPa 0,0 l/m 0,0 km/h (0 Bft) W 260 0 min 0 min 4,6 C 6,1 C
18.09.2012 23:59 5,5 C 89 % 1014 hPa 0,0 l/m 0,0 km/h (0 Bft) W 260 0 min 0 min 3,8 C 5,5 C
_ Min-Zeit 03:53 17:14 03:53 - 00:08 - - - - 23:59 17:44
Minimum _ 4,9 C 76 % 1011 hPa - 0,0 km/h (0 Bft) - - - - 3,8 C 3,9 C
_ Max-Zeit 12:14 08:59 23:59 06:08 11:14 - - 00:08 06:08 10:44 11:59
Maximum _ 16,7 C 97 % 1014 hPa 0,3 l/m 27,5 km/h
W-SW (4 Bft)
- - 0 min 15 min 13,3 C 11,9 C
Durchschnitt _ 10,4 C 88 % 1012 hPa #0,3 l/m 8,5 km/h (2 Bft) W-SW - #0 min. #15 min. 8,5 C 8,2 C